sensor_id;sensor_type;location;lat;lon;timestamp;P1;durP1;ratioP1;P2;durP2;ratioP2
52208;SDS011;38507;53.132;6.394;2022-12-18T00:02:12;99.38;;;34.55;;
52208;SDS011;38507;53.132;6.394;2022-12-18T00:04:38;104.72;;;33.20;;
52208;SDS011;38507;53.132;6.394;2022-12-18T00:07:04;93.55;;;30.17;;
52208;SDS011;38507;53.132;6.394;2022-12-18T00:09:29;97.90;;;32.97;;
52208;SDS011;38507;53.132;6.394;2022-12-18T00:11:55;90.88;;;29.85;;
52208;SDS011;38507;53.132;6.394;2022-12-18T00:14:20;87.75;;;29.83;;
52208;SDS011;38507;53.132;6.394;2022-12-18T00:16:46;92.30;;;30.15;;
52208;SDS011;38507;53.132;6.394;2022-12-18T00:19:12;95.00;;;30.33;;
52208;SDS011;38507;53.132;6.394;2022-12-18T00:21:39;90.88;;;29.20;;
52208;SDS011;38507;53.132;6.394;2022-12-18T00:24:05;91.72;;;30.50;;
52208;SDS011;38507;53.132;6.394;2022-12-18T00:26:32;86.93;;;31.02;;
52208;SDS011;38507;53.132;6.394;2022-12-18T00:28:59;94.55;;;29.90;;
52208;SDS011;38507;53.132;6.394;2022-12-18T00:31:27;84.45;;;29.00;;
52208;SDS011;38507;53.132;6.394;2022-12-18T00:33:56;94.80;;;30.27;;
52208;SDS011;38507;53.132;6.394;2022-12-18T00:36:23;84.13;;;29.25;;
52208;SDS011;38507;53.132;6.394;2022-12-18T00:38:54;86.65;;;29.42;;
52208;SDS011;38507;53.132;6.394;2022-12-18T00:41:20;100.00;;;28.45;;
52208;SDS011;38507;53.132;6.394;2022-12-18T00:44:05;90.05;;;29.65;;
52208;SDS011;38507;53.132;6.394;2022-12-18T00:46:32;85.72;;;29.05;;
52208;SDS011;38507;53.132;6.394;2022-12-18T00:48:59;94.72;;;29.88;;
52208;SDS011;38507;53.132;6.394;2022-12-18T00:51:24;97.60;;;30.33;;
52208;SDS011;38507;53.132;6.394;2022-12-18T00:53:50;94.80;;;30.40;;
52208;SDS011;38507;53.132;6.394;2022-12-18T00:56:16;98.22;;;28.77;;
52208;SDS011;38507;53.132;6.394;2022-12-18T00:58:41;97.47;;;30.67;;
52208;SDS011;38507;53.132;6.394;2022-12-18T01:01:07;86.22;;;30.77;;
52208;SDS011;38507;53.132;6.394;2022-12-18T01:03:33;93.65;;;29.17;;
52208;SDS011;38507;53.132;6.394;2022-12-18T01:05:59;90.60;;;29.27;;
52208;SDS011;38507;53.132;6.394;2022-12-18T01:08:30;86.63;;;29.50;;
52208;SDS011;38507;53.132;6.394;2022-12-18T01:10:55;87.43;;;31.00;;
52208;SDS011;38507;53.132;6.394;2022-12-18T01:13:21;90.10;;;29.02;;
52208;SDS011;38507;53.132;6.394;2022-12-18T01:15:50;88.68;;;29.40;;
52208;SDS011;38507;53.132;6.394;2022-12-18T01:18:16;84.97;;;28.23;;
52208;SDS011;38507;53.132;6.394;2022-12-18T01:20:42;91.78;;;29.17;;
52208;SDS011;38507;53.132;6.394;2022-12-18T01:23:08;96.88;;;28.52;;
52208;SDS011;38507;53.132;6.394;2022-12-18T01:25:35;77.22;;;27.40;;
52208;SDS011;38507;53.132;6.394;2022-12-18T01:28:01;76.93;;;27.00;;
52208;SDS011;38507;53.132;6.394;2022-12-18T01:30:26;91.65;;;28.10;;
52208;SDS011;38507;53.132;6.394;2022-12-18T01:32:52;76.93;;;27.67;;
52208;SDS011;38507;53.132;6.394;2022-12-18T01:35:18;80.55;;;27.33;;
52208;SDS011;38507;53.132;6.394;2022-12-18T01:37:44;76.63;;;25.90;;
52208;SDS011;38507;53.132;6.394;2022-12-18T01:40:09;83.82;;;27.65;;
52208;SDS011;38507;53.132;6.394;2022-12-18T01:42:35;79.00;;;27.77;;
52208;SDS011;38507;53.132;6.394;2022-12-18T01:52:48;71.70;;;26.25;;
52208;SDS011;38507;53.132;6.394;2022-12-18T01:55:19;77.82;;;26.98;;
52208;SDS011;38507;53.132;6.394;2022-12-18T01:57:49;76.63;;;26.17;;
52208;SDS011;38507;53.132;6.394;2022-12-18T02:00:18;69.23;;;25.97;;
52208;SDS011;38507;53.132;6.394;2022-12-18T02:02:46;74.60;;;26.13;;
52208;SDS011;38507;53.132;6.394;2022-12-18T02:05:13;73.83;;;26.30;;
52208;SDS011;38507;53.132;6.394;2022-12-18T02:10:31;84.40;;;27.92;;
52208;SDS011;38507;53.132;6.394;2022-12-18T02:13:14;71.07;;;25.45;;
52208;SDS011;38507;53.132;6.394;2022-12-18T02:18:38;78.95;;;27.25;;
52208;SDS011;38507;53.132;6.394;2022-12-18T02:21:25;75.50;;;25.80;;
52208;SDS011;38507;53.132;6.394;2022-12-18T02:26:48;74.47;;;26.40;;
52208;SDS011;38507;53.132;6.394;2022-12-18T02:29:21;74.97;;;25.27;;
52208;SDS011;38507;53.132;6.394;2022-12-18T02:31:53;81.53;;;27.67;;
52208;SDS011;38507;53.132;6.394;2022-12-18T02:34:22;74.00;;;28.00;;
52208;SDS011;38507;53.132;6.394;2022-12-18T02:36:51;86.63;;;28.30;;
52208;SDS011;38507;53.132;6.394;2022-12-18T02:39:18;82.50;;;28.77;;
52208;SDS011;38507;53.132;6.394;2022-12-18T02:41:46;84.57;;;26.20;;
52208;SDS011;38507;53.132;6.394;2022-12-18T02:44:13;74.70;;;27.77;;
52208;SDS011;38507;53.132;6.394;2022-12-18T02:46:41;70.53;;;25.03;;
52208;SDS011;38507;53.132;6.394;2022-12-18T02:49:17;75.47;;;27.53;;
52208;SDS011;38507;53.132;6.394;2022-12-18T02:51:59;74.90;;;28.00;;
52208;SDS011;38507;53.132;6.394;2022-12-18T02:57:56;69.67;;;25.40;;
52208;SDS011;38507;53.132;6.394;2022-12-18T03:00:39;82.13;;;27.63;;
52208;SDS011;38507;53.132;6.394;2022-12-18T03:05:50;71.67;;;26.23;;
52208;SDS011;38507;53.132;6.394;2022-12-18T03:08:22;73.87;;;26.53;;
52208;SDS011;38507;53.132;6.394;2022-12-18T03:10:57;74.28;;;27.92;;
52208;SDS011;38507;53.132;6.394;2022-12-18T03:13:31;76.13;;;27.07;;
52208;SDS011;38507;53.132;6.394;2022-12-18T03:16:00;82.18;;;27.67;;
52208;SDS011;38507;53.132;6.394;2022-12-18T03:18:33;74.80;;;27.03;;
52208;SDS011;38507;53.132;6.394;2022-12-18T03:21:02;79.63;;;31.17;;
52208;SDS011;38507;53.132;6.394;2022-12-18T03:23:32;86.27;;;30.13;;
52208;SDS011;38507;53.132;6.394;2022-12-18T03:26:02;85.37;;;29.37;;
52208;SDS011;38507;53.132;6.394;2022-12-18T03:28:32;94.60;;;29.57;;
52208;SDS011;38507;53.132;6.394;2022-12-18T03:31:06;87.33;;;29.97;;
52208;SDS011;38507;53.132;6.394;2022-12-18T03:33:37;87.13;;;29.90;;
52208;SDS011;38507;53.132;6.394;2022-12-18T03:36:06;78.80;;;28.47;;
52208;SDS011;38507;53.132;6.394;2022-12-18T03:38:32;90.97;;;29.07;;
52208;SDS011;38507;53.132;6.394;2022-12-18T03:41:03;77.37;;;27.03;;
52208;SDS011;38507;53.132;6.394;2022-12-18T03:43:49;79.87;;;28.80;;
52208;SDS011;38507;53.132;6.394;2022-12-18T03:46:26;73.17;;;27.63;;
52208;SDS011;38507;53.132;6.394;2022-12-18T03:49:07;85.10;;;27.50;;
52208;SDS011;38507;53.132;6.394;2022-12-18T03:54:07;77.23;;;28.33;;
52208;SDS011;38507;53.132;6.394;2022-12-18T03:56:36;77.17;;;26.63;;
52208;SDS011;38507;53.132;6.394;2022-12-18T03:59:07;80.87;;;26.63;;
52208;SDS011;38507;53.132;6.394;2022-12-18T04:01:34;80.90;;;27.90;;
52208;SDS011;38507;53.132;6.394;2022-12-18T04:04:04;78.87;;;27.77;;
52208;SDS011;38507;53.132;6.394;2022-12-18T04:06:32;74.00;;;26.80;;
52208;SDS011;38507;53.132;6.394;2022-12-18T04:08:58;79.40;;;27.30;;
52208;SDS011;38507;53.132;6.394;2022-12-18T04:11:24;73.03;;;28.03;;
52208;SDS011;38507;53.132;6.394;2022-12-18T04:13:50;73.80;;;25.23;;
52208;SDS011;38507;53.132;6.394;2022-12-18T04:16:20;72.30;;;26.73;;
52208;SDS011;38507;53.132;6.394;2022-12-18T04:18:45;71.90;;;26.80;;
52208;SDS011;38507;53.132;6.394;2022-12-18T04:21:11;72.97;;;25.77;;
52208;SDS011;38507;53.132;6.394;2022-12-18T04:23:36;65.70;;;23.90;;
52208;SDS011;38507;53.132;6.394;2022-12-18T04:26:02;65.47;;;25.67;;
52208;SDS011;38507;53.132;6.394;2022-12-18T04:28:28;72.87;;;26.43;;
52208;SDS011;38507;53.132;6.394;2022-12-18T04:30:53;70.73;;;26.70;;
52208;SDS011;38507;53.132;6.394;2022-12-18T04:33:19;68.47;;;22.73;;
52208;SDS011;38507;53.132;6.394;2022-12-18T04:35:45;63.97;;;24.00;;
52208;SDS011;38507;53.132;6.394;2022-12-18T04:38:10;63.43;;;23.67;;
52208;SDS011;38507;53.132;6.394;2022-12-18T04:40:36;66.23;;;24.57;;
52208;SDS011;38507;53.132;6.394;2022-12-18T04:43:02;64.00;;;24.30;;
52208;SDS011;38507;53.132;6.394;2022-12-18T04:45:29;70.33;;;26.07;;
52208;SDS011;38507;53.132;6.394;2022-12-18T04:47:57;72.00;;;24.33;;
52208;SDS011;38507;53.132;6.394;2022-12-18T04:50:23;70.83;;;24.33;;
52208;SDS011;38507;53.132;6.394;2022-12-18T04:52:49;75.60;;;24.17;;
52208;SDS011;38507;53.132;6.394;2022-12-18T04:55:14;67.70;;;25.10;;
52208;SDS011;38507;53.132;6.394;2022-12-18T04:57:40;69.93;;;26.30;;
52208;SDS011;38507;53.132;6.394;2022-12-18T05:00:07;72.53;;;23.57;;
52208;SDS011;38507;53.132;6.394;2022-12-18T05:02:33;63.60;;;23.40;;
52208;SDS011;38507;53.132;6.394;2022-12-18T05:04:59;68.77;;;23.80;;
52208;SDS011;38507;53.132;6.394;2022-12-18T05:07:25;66.03;;;23.27;;
52208;SDS011;38507;53.132;6.394;2022-12-18T05:09:50;62.93;;;23.70;;
52208;SDS011;38507;53.132;6.394;2022-12-18T05:12:16;74.83;;;26.03;;
52208;SDS011;38507;53.132;6.394;2022-12-18T05:14:41;67.90;;;23.73;;
52208;SDS011;38507;53.132;6.394;2022-12-18T05:17:07;67.73;;;23.37;;
52208;SDS011;38507;53.132;6.394;2022-12-18T05:19:33;54.87;;;21.77;;
52208;SDS011;38507;53.132;6.394;2022-12-18T05:21:58;66.20;;;22.13;;
52208;SDS011;38507;53.132;6.394;2022-12-18T05:24:24;67.77;;;24.10;;
52208;SDS011;38507;53.132;6.394;2022-12-18T05:26:50;69.80;;;23.27;;
52208;SDS011;38507;53.132;6.394;2022-12-18T05:29:15;64.17;;;22.93;;
52208;SDS011;38507;53.132;6.394;2022-12-18T05:31:41;70.63;;;24.47;;
52208;SDS011;38507;53.132;6.394;2022-12-18T05:34:06;62.07;;;23.70;;
52208;SDS011;38507;53.132;6.394;2022-12-18T05:36:32;60.10;;;22.03;;
52208;SDS011;38507;53.132;6.394;2022-12-18T05:38:58;67.07;;;23.47;;
52208;SDS011;38507;53.132;6.394;2022-12-18T05:41:25;69.00;;;23.63;;
52208;SDS011;38507;53.132;6.394;2022-12-18T05:43:51;64.40;;;22.67;;
52208;SDS011;38507;53.132;6.394;2022-12-18T05:46:16;64.40;;;22.73;;
52208;SDS011;38507;53.132;6.394;2022-12-18T05:48:43;66.17;;;23.10;;
52208;SDS011;38507;53.132;6.394;2022-12-18T05:51:10;63.33;;;22.27;;
52208;SDS011;38507;53.132;6.394;2022-12-18T05:53:40;62.20;;;21.70;;
52208;SDS011;38507;53.132;6.394;2022-12-18T05:56:08;63.93;;;22.27;;
52208;SDS011;38507;53.132;6.394;2022-12-18T05:58:36;64.23;;;22.50;;
52208;SDS011;38507;53.132;6.394;2022-12-18T06:01:11;64.43;;;21.97;;
52208;SDS011;38507;53.132;6.394;2022-12-18T06:03:39;62.33;;;22.07;;
52208;SDS011;38507;53.132;6.394;2022-12-18T06:06:12;62.47;;;22.60;;
52208;SDS011;38507;53.132;6.394;2022-12-18T06:08:42;64.30;;;22.67;;
52208;SDS011;38507;53.132;6.394;2022-12-18T06:11:08;68.43;;;23.43;;
52208;SDS011;38507;53.132;6.394;2022-12-18T06:13:34;59.90;;;23.60;;
52208;SDS011;38507;53.132;6.394;2022-12-18T06:16:06;62.17;;;22.23;;
52208;SDS011;38507;53.132;6.394;2022-12-18T06:18:33;69.17;;;23.10;;
52208;SDS011;38507;53.132;6.394;2022-12-18T06:20:59;59.07;;;23.67;;
52208;SDS011;38507;53.132;6.394;2022-12-18T06:23:25;62.83;;;22.20;;
52208;SDS011;38507;53.132;6.394;2022-12-18T06:25:51;56.80;;;21.73;;
52208;SDS011;38507;53.132;6.394;2022-12-18T06:28:16;63.00;;;21.47;;
52208;SDS011;38507;53.132;6.394;2022-12-18T06:30:46;62.63;;;21.33;;
52208;SDS011;38507;53.132;6.394;2022-12-18T06:33:13;62.27;;;22.90;;
52208;SDS011;38507;53.132;6.394;2022-12-18T06:35:39;54.43;;;20.00;;
52208;SDS011;38507;53.132;6.394;2022-12-18T06:38:05;59.33;;;20.27;;
52208;SDS011;38507;53.132;6.394;2022-12-18T06:40:31;54.00;;;21.17;;
52208;SDS011;38507;53.132;6.394;2022-12-18T06:42:57;54.00;;;20.40;;
52208;SDS011;38507;53.132;6.394;2022-12-18T06:45:22;72.70;;;26.43;;
52208;SDS011;38507;53.132;6.394;2022-12-18T06:47:49;64.70;;;23.13;;
52208;SDS011;38507;53.132;6.394;2022-12-18T06:50:15;62.20;;;19.80;;
52208;SDS011;38507;53.132;6.394;2022-12-18T06:52:40;54.37;;;20.47;;
52208;SDS011;38507;53.132;6.394;2022-12-18T06:55:07;45.80;;;19.97;;
52208;SDS011;38507;53.132;6.394;2022-12-18T06:57:33;51.80;;;19.90;;
52208;SDS011;38507;53.132;6.394;2022-12-18T06:59:59;50.90;;;19.67;;
52208;SDS011;38507;53.132;6.394;2022-12-18T07:02:25;51.23;;;19.00;;
52208;SDS011;38507;53.132;6.394;2022-12-18T07:04:50;48.63;;;19.83;;
52208;SDS011;38507;53.132;6.394;2022-12-18T07:07:16;46.10;;;17.43;;
52208;SDS011;38507;53.132;6.394;2022-12-18T07:09:42;54.83;;;19.30;;
52208;SDS011;38507;53.132;6.394;2022-12-18T07:12:07;52.47;;;19.30;;
52208;SDS011;38507;53.132;6.394;2022-12-18T07:14:34;50.63;;;19.83;;
52208;SDS011;38507;53.132;6.394;2022-12-18T07:16:59;51.70;;;18.80;;
52208;SDS011;38507;53.132;6.394;2022-12-18T07:19:25;45.73;;;18.43;;
52208;SDS011;38507;53.132;6.394;2022-12-18T07:21:51;47.57;;;17.57;;
52208;SDS011;38507;53.132;6.394;2022-12-18T07:24:16;43.50;;;17.80;;
52208;SDS011;38507;53.132;6.394;2022-12-18T07:26:42;42.63;;;18.23;;
52208;SDS011;38507;53.132;6.394;2022-12-18T07:29:10;41.57;;;17.67;;
52208;SDS011;38507;53.132;6.394;2022-12-18T07:31:35;46.40;;;18.00;;
52208;SDS011;38507;53.132;6.394;2022-12-18T07:34:01;40.73;;;17.63;;
52208;SDS011;38507;53.132;6.394;2022-12-18T07:36:27;41.53;;;17.70;;
52208;SDS011;38507;53.132;6.394;2022-12-18T07:38:52;41.10;;;17.53;;
52208;SDS011;38507;53.132;6.394;2022-12-18T07:41:18;39.63;;;15.80;;
52208;SDS011;38507;53.132;6.394;2022-12-18T07:43:44;44.67;;;17.60;;
52208;SDS011;38507;53.132;6.394;2022-12-18T07:46:11;41.63;;;18.43;;
52208;SDS011;38507;53.132;6.394;2022-12-18T07:48:39;38.40;;;16.60;;
52208;SDS011;38507;53.132;6.394;2022-12-18T07:51:06;46.00;;;19.03;;
52208;SDS011;38507;53.132;6.394;2022-12-18T07:53:32;40.73;;;17.67;;
52208;SDS011;38507;53.132;6.394;2022-12-18T07:55:59;47.33;;;19.17;;
52208;SDS011;38507;53.132;6.394;2022-12-18T07:58:27;40.43;;;17.80;;
52208;SDS011;38507;53.132;6.394;2022-12-18T08:00:54;40.27;;;16.70;;
52208;SDS011;38507;53.132;6.394;2022-12-18T08:03:26;39.97;;;16.77;;
52208;SDS011;38507;53.132;6.394;2022-12-18T08:05:52;37.77;;;17.30;;
52208;SDS011;38507;53.132;6.394;2022-12-18T08:08:17;42.37;;;17.53;;
52208;SDS011;38507;53.132;6.394;2022-12-18T08:10:43;37.63;;;17.93;;
52208;SDS011;38507;53.132;6.394;2022-12-18T08:13:08;37.43;;;17.00;;
52208;SDS011;38507;53.132;6.394;2022-12-18T08:15:34;38.83;;;16.60;;
52208;SDS011;38507;53.132;6.394;2022-12-18T08:18:00;36.23;;;15.77;;
52208;SDS011;38507;53.132;6.394;2022-12-18T08:20:25;40.27;;;18.27;;
52208;SDS011;38507;53.132;6.394;2022-12-18T08:22:51;34.17;;;16.33;;
52208;SDS011;38507;53.132;6.394;2022-12-18T08:25:17;34.20;;;15.30;;
52208;SDS011;38507;53.132;6.394;2022-12-18T08:27:42;37.43;;;16.40;;
52208;SDS011;38507;53.132;6.394;2022-12-18T08:30:08;33.17;;;15.13;;
52208;SDS011;38507;53.132;6.394;2022-12-18T08:32:34;40.93;;;16.63;;
52208;SDS011;38507;53.132;6.394;2022-12-18T08:35:00;37.73;;;15.27;;
52208;SDS011;38507;53.132;6.394;2022-12-18T08:37:25;34.93;;;16.27;;
52208;SDS011;38507;53.132;6.394;2022-12-18T08:39:51;32.50;;;13.97;;
52208;SDS011;38507;53.132;6.394;2022-12-18T08:42:17;35.80;;;15.90;;
52208;SDS011;38507;53.132;6.394;2022-12-18T08:45:01;38.87;;;16.70;;
52208;SDS011;38507;53.132;6.394;2022-12-18T08:47:27;37.23;;;15.50;;
52208;SDS011;38507;53.132;6.394;2022-12-18T08:49:53;29.97;;;15.73;;
52208;SDS011;38507;53.132;6.394;2022-12-18T08:52:19;31.30;;;15.30;;
52208;SDS011;38507;53.132;6.394;2022-12-18T08:54:44;33.67;;;15.57;;
52208;SDS011;38507;53.132;6.394;2022-12-18T08:57:10;34.23;;;15.40;;
52208;SDS011;38507;53.132;6.394;2022-12-18T08:59:35;35.73;;;16.50;;
52208;SDS011;38507;53.132;6.394;2022-12-18T09:02:01;33.60;;;14.07;;
52208;SDS011;38507;53.132;6.394;2022-12-18T09:04:26;33.13;;;15.57;;
52208;SDS011;38507;53.132;6.394;2022-12-18T09:06:52;31.30;;;16.10;;
52208;SDS011;38507;53.132;6.394;2022-12-18T09:09:18;32.53;;;15.50;;
52208;SDS011;38507;53.132;6.394;2022-12-18T09:11:43;39.30;;;15.60;;
52208;SDS011;38507;53.132;6.394;2022-12-18T09:14:09;33.80;;;15.47;;
52208;SDS011;38507;53.132;6.394;2022-12-18T09:16:35;32.10;;;14.50;;
52208;SDS011;38507;53.132;6.394;2022-12-18T09:19:10;38.80;;;14.80;;
52208;SDS011;38507;53.132;6.394;2022-12-18T09:21:36;33.40;;;16.00;;
52208;SDS011;38507;53.132;6.394;2022-12-18T09:24:03;27.27;;;13.70;;
52208;SDS011;38507;53.132;6.394;2022-12-18T09:26:29;27.43;;;13.30;;
52208;SDS011;38507;53.132;6.394;2022-12-18T09:28:55;29.47;;;14.60;;
52208;SDS011;38507;53.132;6.394;2022-12-18T09:31:21;26.90;;;13.87;;
52208;SDS011;38507;53.132;6.394;2022-12-18T09:33:48;28.47;;;13.03;;
52208;SDS011;38507;53.132;6.394;2022-12-18T09:36:15;26.07;;;12.47;;
52208;SDS011;38507;53.132;6.394;2022-12-18T09:38:42;24.80;;;11.73;;
52208;SDS011;38507;53.132;6.394;2022-12-18T09:41:20;28.77;;;13.13;;
52208;SDS011;38507;53.132;6.394;2022-12-18T09:43:57;29.20;;;13.40;;
52208;SDS011;38507;53.132;6.394;2022-12-18T09:46:38;23.10;;;12.60;;
52208;SDS011;38507;53.132;6.394;2022-12-18T09:49:14;28.30;;;12.87;;
52208;SDS011;38507;53.132;6.394;2022-12-18T09:51:52;26.27;;;12.88;;
52208;SDS011;38507;53.132;6.394;2022-12-18T09:54:40;27.00;;;13.33;;
52208;SDS011;38507;53.132;6.394;2022-12-18T09:57:10;27.13;;;13.15;;
52208;SDS011;38507;53.132;6.394;2022-12-18T09:59:39;25.88;;;13.05;;
52208;SDS011;38507;53.132;6.394;2022-12-18T10:02:22;25.38;;;12.98;;
52208;SDS011;38507;53.132;6.394;2022-12-18T10:05:00;24.55;;;12.15;;
52208;SDS011;38507;53.132;6.394;2022-12-18T10:10:22;27.92;;;13.23;;
52208;SDS011;38507;53.132;6.394;2022-12-18T10:12:56;24.42;;;12.20;;
52208;SDS011;38507;53.132;6.394;2022-12-18T10:15:40;23.38;;;11.90;;
52208;SDS011;38507;53.132;6.394;2022-12-18T10:24:26;27.70;;;12.75;;
52208;SDS011;38507;53.132;6.394;2022-12-18T10:27:14;26.17;;;12.45;;
52208;SDS011;38507;53.132;6.394;2022-12-18T10:29:42;23.55;;;12.80;;
52208;SDS011;38507;53.132;6.394;2022-12-18T10:32:13;26.65;;;13.60;;
52208;SDS011;38507;53.132;6.394;2022-12-18T10:34:50;22.95;;;11.60;;
52208;SDS011;38507;53.132;6.394;2022-12-18T10:37:19;22.45;;;11.52;;
52208;SDS011;38507;53.132;6.394;2022-12-18T10:40:04;22.77;;;11.80;;
52208;SDS011;38507;53.132;6.394;2022-12-18T10:42:36;24.50;;;11.98;;
52208;SDS011;38507;53.132;6.394;2022-12-18T10:45:08;24.33;;;12.35;;
52208;SDS011;38507;53.132;6.394;2022-12-18T10:47:36;24.70;;;11.98;;
52208;SDS011;38507;53.132;6.394;2022-12-18T10:50:11;22.48;;;12.13;;
52208;SDS011;38507;53.132;6.394;2022-12-18T10:52:55;19.00;;;10.45;;
52208;SDS011;38507;53.132;6.394;2022-12-18T10:55:22;21.00;;;10.70;;
52208;SDS011;38507;53.132;6.394;2022-12-18T10:57:56;19.90;;;11.32;;
52208;SDS011;38507;53.132;6.394;2022-12-18T11:00:41;20.35;;;10.98;;
52208;SDS011;38507;53.132;6.394;2022-12-18T11:03:41;21.95;;;10.32;;
52208;SDS011;38507;53.132;6.394;2022-12-18T11:06:03;19.90;;;9.63;;
52208;SDS011;38507;53.132;6.394;2022-12-18T11:08:31;16.05;;;9.05;;
52208;SDS011;38507;53.132;6.394;2022-12-18T11:10:57;15.20;;;8.70;;
52208;SDS011;38507;53.132;6.394;2022-12-18T11:13:24;16.40;;;8.85;;
52208;SDS011;38507;53.132;6.394;2022-12-18T11:15:52;17.35;;;8.35;;
52208;SDS011;38507;53.132;6.394;2022-12-18T11:18:19;16.58;;;8.80;;
52208;SDS011;38507;53.132;6.394;2022-12-18T11:20:57;23.58;;;11.30;;
52208;SDS011;38507;53.132;6.394;2022-12-18T11:23:26;25.85;;;13.95;;
52208;SDS011;38507;53.132;6.394;2022-12-18T11:25:56;22.08;;;11.88;;
52208;SDS011;38507;53.132;6.394;2022-12-18T11:28:37;18.70;;;9.60;;
52208;SDS011;38507;53.132;6.394;2022-12-18T11:31:17;16.60;;;8.85;;
52208;SDS011;38507;53.132;6.394;2022-12-18T11:36:45;17.25;;;9.63;;
52208;SDS011;38507;53.132;6.394;2022-12-18T11:39:19;15.57;;;8.10;;
52208;SDS011;38507;53.132;6.394;2022-12-18T11:41:55;15.30;;;8.40;;
52208;SDS011;38507;53.132;6.394;2022-12-18T11:44:41;16.85;;;9.05;;
52208;SDS011;38507;53.132;6.394;2022-12-18T11:50:03;14.82;;;7.95;;
52208;SDS011;38507;53.132;6.394;2022-12-18T11:52:42;15.25;;;7.75;;
52208;SDS011;38507;53.132;6.394;2022-12-18T11:55:12;18.00;;;8.23;;
52208;SDS011;38507;53.132;6.394;2022-12-18T12:00:18;15.48;;;8.45;;
52208;SDS011;38507;53.132;6.394;2022-12-18T12:13:45;18.10;;;8.63;;
52208;SDS011;38507;53.132;6.394;2022-12-18T12:19:33;15.23;;;7.97;;
52208;SDS011;38507;53.132;6.394;2022-12-18T12:22:51;12.38;;;6.82;;
52208;SDS011;38507;53.132;6.394;2022-12-18T12:35:52;15.02;;;6.68;;
52208;SDS011;38507;53.132;6.394;2022-12-18T12:38:44;11.73;;;6.25;;
52208;SDS011;38507;53.132;6.394;2022-12-18T12:41:16;13.50;;;6.60;;
52208;SDS011;38507;53.132;6.394;2022-12-18T12:44:06;12.60;;;5.97;;
52208;SDS011;38507;53.132;6.394;2022-12-18T12:46:39;9.88;;;5.80;;
52208;SDS011;38507;53.132;6.394;2022-12-18T12:49:25;13.07;;;6.88;;
52208;SDS011;38507;53.132;6.394;2022-12-18T12:52:15;11.60;;;6.40;;
52208;SDS011;38507;53.132;6.394;2022-12-18T12:54:42;12.57;;;6.38;;
52208;SDS011;38507;53.132;6.394;2022-12-18T12:57:15;12.13;;;6.15;;
52208;SDS011;38507;53.132;6.394;2022-12-18T13:00:36;11.73;;;7.05;;
52208;SDS011;38507;53.132;6.394;2022-12-18T13:02:52;12.82;;;6.97;;
52208;SDS011;38507;53.132;6.394;2022-12-18T13:07:55;13.13;;;6.47;;
52208;SDS011;38507;53.132;6.394;2022-12-18T13:13:09;16.50;;;7.65;;
52208;SDS011;38507;53.132;6.394;2022-12-18T13:15:47;12.65;;;5.88;;
52208;SDS011;38507;53.132;6.394;2022-12-18T13:18:29;12.07;;;6.07;;
52208;SDS011;38507;53.132;6.394;2022-12-18T13:29:05;11.63;;;5.78;;
52208;SDS011;38507;53.132;6.394;2022-12-18T13:31:12;12.73;;;6.63;;
52208;SDS011;38507;53.132;6.394;2022-12-18T13:36:49;8.73;;;5.10;;
52208;SDS011;38507;53.132;6.394;2022-12-18T13:39:21;10.50;;;5.00;;
52208;SDS011;38507;53.132;6.394;2022-12-18T13:41:47;11.63;;;5.22;;
52208;SDS011;38507;53.132;6.394;2022-12-18T13:46:58;9.60;;;5.25;;
52208;SDS011;38507;53.132;6.394;2022-12-18T13:52:17;14.48;;;6.80;;
52208;SDS011;38507;53.132;6.394;2022-12-18T13:54:55;12.63;;;6.18;;
52208;SDS011;38507;53.132;6.394;2022-12-18T13:59:59;10.90;;;5.18;;
52208;SDS011;38507;53.132;6.394;2022-12-18T14:02:46;10.25;;;5.10;;
52208;SDS011;38507;53.132;6.394;2022-12-18T14:05:29;9.95;;;5.72;;
52208;SDS011;38507;53.132;6.394;2022-12-18T14:08:08;11.32;;;5.25;;
52208;SDS011;38507;53.132;6.394;2022-12-18T14:10:41;10.90;;;6.00;;
52208;SDS011;38507;53.132;6.394;2022-12-18T14:13:09;11.88;;;5.57;;
52208;SDS011;38507;53.132;6.394;2022-12-18T14:15:41;11.73;;;5.80;;
52208;SDS011;38507;53.132;6.394;2022-12-18T14:20:57;10.50;;;5.43;;
52208;SDS011;38507;53.132;6.394;2022-12-18T14:26:21;10.43;;;5.82;;
52208;SDS011;38507;53.132;6.394;2022-12-18T14:28:47;15.02;;;6.10;;
52208;SDS011;38507;53.132;6.394;2022-12-18T14:31:26;11.60;;;6.13;;
52208;SDS011;38507;53.132;6.394;2022-12-18T14:33:54;12.35;;;5.80;;
52208;SDS011;38507;53.132;6.394;2022-12-18T14:36:21;10.88;;;5.45;;
52208;SDS011;38507;53.132;6.394;2022-12-18T14:38:52;9.18;;;5.05;;
52208;SDS011;38507;53.132;6.394;2022-12-18T14:41:19;12.88;;;6.53;;
52208;SDS011;38507;53.132;6.394;2022-12-18T14:43:47;13.65;;;6.55;;
52208;SDS011;38507;53.132;6.394;2022-12-18T14:46:32;13.07;;;5.78;;
52208;SDS011;38507;53.132;6.394;2022-12-18T14:49:00;10.85;;;5.53;;
52208;SDS011;38507;53.132;6.394;2022-12-18T14:51:30;11.63;;;5.63;;
52208;SDS011;38507;53.132;6.394;2022-12-18T14:54:01;8.98;;;5.55;;
52208;SDS011;38507;53.132;6.394;2022-12-18T14:56:30;10.75;;;5.78;;
52208;SDS011;38507;53.132;6.394;2022-12-18T14:58:59;11.25;;;5.80;;
52208;SDS011;38507;53.132;6.394;2022-12-18T15:01:45;11.32;;;5.70;;
52208;SDS011;38507;53.132;6.394;2022-12-18T15:04:26;12.60;;;5.45;;
52208;SDS011;38507;53.132;6.394;2022-12-18T15:07:17;10.98;;;6.30;;
52208;SDS011;38507;53.132;6.394;2022-12-18T15:12:41;9.77;;;5.32;;
52208;SDS011;38507;53.132;6.394;2022-12-18T15:15:58;9.05;;;4.95;;
52208;SDS011;38507;53.132;6.394;2022-12-18T15:18:18;9.88;;;5.47;;
52208;SDS011;38507;53.132;6.394;2022-12-18T15:23:32;8.82;;;5.35;;
52208;SDS011;38507;53.132;6.394;2022-12-18T15:26:05;10.52;;;5.80;;
52208;SDS011;38507;53.132;6.394;2022-12-18T15:28:39;10.77;;;5.90;;
52208;SDS011;38507;53.132;6.394;2022-12-18T15:36:09;12.38;;;5.78;;
52208;SDS011;38507;53.132;6.394;2022-12-18T15:38:37;10.85;;;6.20;;
52208;SDS011;38507;53.132;6.394;2022-12-18T15:41:03;12.30;;;5.97;;
52208;SDS011;38507;53.132;6.394;2022-12-18T15:43:32;12.07;;;5.82;;
52208;SDS011;38507;53.132;6.394;2022-12-18T15:46:05;12.10;;;5.93;;
52208;SDS011;38507;53.132;6.394;2022-12-18T15:48:42;11.80;;;6.05;;
52208;SDS011;38507;53.132;6.394;2022-12-18T15:51:11;14.73;;;6.97;;
52208;SDS011;38507;53.132;6.394;2022-12-18T15:53:41;13.77;;;6.95;;
52208;SDS011;38507;53.132;6.394;2022-12-18T15:56:11;14.40;;;7.43;;
52208;SDS011;38507;53.132;6.394;2022-12-18T15:58:56;12.45;;;6.80;;
52208;SDS011;38507;53.132;6.394;2022-12-18T16:01:26;15.02;;;7.43;;
52208;SDS011;38507;53.132;6.394;2022-12-18T16:03:53;12.30;;;6.90;;
52208;SDS011;38507;53.132;6.394;2022-12-18T16:06:20;15.90;;;7.22;;
52208;SDS011;38507;53.132;6.394;2022-12-18T16:08:46;13.23;;;7.28;;
52208;SDS011;38507;53.132;6.394;2022-12-18T16:11:31;13.20;;;7.18;;
52208;SDS011;38507;53.132;6.394;2022-12-18T16:14:07;12.65;;;6.93;;
52208;SDS011;38507;53.132;6.394;2022-12-18T16:16:45;14.43;;;7.60;;
52208;SDS011;38507;53.132;6.394;2022-12-18T16:19:12;12.48;;;7.95;;
52208;SDS011;38507;53.132;6.394;2022-12-18T16:21:38;12.77;;;7.22;;
52208;SDS011;38507;53.132;6.394;2022-12-18T16:24:03;11.57;;;7.53;;
52208;SDS011;38507;53.132;6.394;2022-12-18T16:26:29;14.10;;;7.28;;
52208;SDS011;38507;53.132;6.394;2022-12-18T16:28:56;15.20;;;7.80;;
52208;SDS011;38507;53.132;6.394;2022-12-18T16:31:22;13.88;;;7.25;;